Terminal Aerodrome Forecast
Issued by NWS

Home | Current Version | Previous Version | Text Only | Print | Product List | Glossary On
Versions: 1 2 3 4 5 6 7 8 9 10 11 12
122
FTUS45 KABQ 182339
TAFROW
TAF
KROW 182339Z 1900/1924 16008KT P6SM BKN200
     FM190200 20006KT P6SM BKN120
     FM190900 VRB03KT P6SM VCSH BKN100
      TEMPO 1915/1919 6SM -TSRA OVC050CB
     FM192000 14007KT P6SM BKN050=

USA.gov is the U.S. government's official web portal to all federal, state and local government web resources and services.